Time;durP1;ratioP1;P1;durP2;ratioP2;P2;SDS_P1;SDS_P2;PMS_P1;PMS_P2;Temp;Humidity;BMP_temperature;BMP_pressure;BME280_temperature;BME280_humidity;BME280_pressure;Samples;Min_cycle;Max_cycle;Signal;HPM_P1;HPM_P2
2023/12/15 00:02:12;;;;;;;65.05;36.53;;;6.00;99.90;;;;;;7368710;19;20035;-64
2023/12/15 00:04:39;;;;;;;61.47;34.20;;;6.00;99.90;;;;;;7371019;19;20081;-63
2023/12/15 00:07:05;;;;;;;61.45;34.17;;;6.00;99.90;;;;;;7369576;19;20014;-63
2023/12/15 00:09:31;;;;;;;64.25;35.85;;;6.00;99.90;;;;;;7370749;19;20584;-63
2023/12/15 00:11:57;;;;;;;64.70;35.30;;;6.00;99.90;;;;;;7372928;19;20033;-63
2023/12/15 00:14:23;;;;;;;65.90;37.88;;;6.10;99.90;;;;;;7371445;19;20130;-63
2023/12/15 00:16:50;;;;;;;76.28;36.53;;;6.10;99.90;;;;;;7370947;19;20018;-63
2023/12/15 00:19:16;;;;;;;71.13;37.38;;;6.10;99.90;;;;;;7369757;19;20022;-63
2023/12/15 00:21:43;;;;;;;66.15;37.33;;;6.10;99.90;;;;;;7367459;19;20116;-64
2023/12/15 00:24:10;;;;;;;71.57;38.75;;;6.10;99.90;;;;;;7371585;19;20439;-63
2023/12/15 00:26:40;;;;;;;74.93;37.83;;;6.10;99.90;;;;;;7366440;19;20022;-69
2023/12/15 00:29:06;;;;;;;71.78;36.50;;;6.10;99.90;;;;;;7372484;19;20782;-68
2023/12/15 00:31:32;;;;;;;66.80;37.38;;;6.20;99.90;;;;;;7367275;19;20511;-64
2023/12/15 00:33:58;;;;;;;76.78;40.53;;;6.10;99.90;;;;;;7371285;19;20033;-63
2023/12/15 00:36:25;;;;;;;65.70;36.72;;;6.20;99.90;;;;;;7367283;19;20018;-64
2023/12/15 00:38:51;;;;;;;78.07;39.95;;;6.20;99.90;;;;;;7370133;19;20015;-63
2023/12/15 00:41:37;;;;;;;77.88;39.45;;;6.20;99.90;;;;;;7365410;19;20006;-63
2023/12/15 00:44:24;;;;;;;77.50;39.15;;;6.20;99.90;;;;;;7369373;19;20039;-68
2023/12/15 00:46:50;;;;;;;74.78;40.90;;;6.20;99.90;;;;;;7370851;19;20026;-64
2023/12/15 00:49:16;;;;;;;80.55;40.35;;;6.30;99.90;;;;;;7369312;19;20060;-68
2023/12/15 00:51:42;;;;;;;71.95;39.67;;;6.30;99.90;;;;;;7367992;19;20030;-70
2023/12/15 00:54:09;;;;;;;79.82;40.70;;;6.30;99.90;;;;;;7370833;19;20018;-68
2023/12/15 00:56:35;;;;;;;79.18;39.85;;;6.30;99.90;;;;;;7368950;19;20111;-68
2023/12/15 00:59:04;;;;;;;87.97;42.42;;;6.30;99.90;;;;;;7370720;19;20793;-64
2023/12/15 01:01:30;;;;;;;74.82;41.95;;;6.30;99.90;;;;;;7367702;19;20780;-68
2023/12/15 01:03:56;;;;;;;75.45;40.45;;;6.40;99.90;;;;;;7373782;19;20378;-68
2023/12/15 01:06:23;;;;;;;78.38;40.35;;;6.40;99.90;;;;;;7370678;19;20022;-68
2023/12/15 01:08:53;;;;;;;89.40;42.08;;;6.40;99.90;;;;;;7370073;19;20019;-68
2023/12/15 01:11:19;;;;;;;76.57;43.33;;;6.40;99.90;;;;;;7364989;19;20090;-68
2023/12/15 01:13:46;;;;;;;82.60;42.08;;;6.40;99.90;;;;;;7363444;19;20417;-64
2023/12/15 01:16:12;;;;;;;74.68;41.80;;;6.40;99.90;;;;;;7369665;19;20021;-68
2023/12/15 01:18:38;;;;;;;82.70;43.45;;;6.50;99.90;;;;;;7369062;19;20030;-63
2023/12/15 01:21:05;;;;;;;92.50;44.90;;;6.50;99.90;;;;;;7365684;19;20018;-63
2023/12/15 01:23:35;;;;;;;82.68;44.05;;;6.50;99.90;;;;;;7367020;19;20513;-68
2023/12/15 01:26:02;;;;;;;84.57;46.63;;;6.50;99.90;;;;;;7374768;19;20023;-63
2023/12/15 01:28:28;;;;;;;87.47;45.80;;;6.50;99.90;;;;;;7373521;19;20899;-68
2023/12/15 01:30:54;;;;;;;82.55;44.53;;;6.60;99.90;;;;;;7374500;19;21457;-68
2023/12/15 01:33:21;;;;;;;91.75;46.00;;;6.60;99.90;;;;;;7377574;19;20585;-68
2023/12/15 01:35:48;;;;;;;91.55;47.17;;;6.60;99.90;;;;;;7375192;19;20019;-68
2023/12/15 01:38:15;;;;;;;92.05;46.47;;;6.60;99.90;;;;;;7377634;19;20018;-68
2023/12/15 01:40:44;;;;;;;94.57;48.30;;;6.60;99.90;;;;;;7374140;19;20127;-68
2023/12/15 01:43:10;;;;;;;95.72;47.33;;;6.60;99.90;;;;;;7377097;19;20018;-70
2023/12/15 01:45:38;;;;;;;89.88;46.28;;;6.60;99.90;;;;;;7376922;19;20014;-68
2023/12/15 01:48:06;;;;;;;91.72;46.38;;;6.70;99.90;;;;;;7374332;19;20277;-63
2023/12/15 01:50:33;;;;;;;88.20;48.83;;;6.70;99.90;;;;;;7376978;19;20023;-63
2023/12/15 01:52:59;;;;;;;99.20;49.50;;;6.70;99.90;;;;;;7374848;19;20044;-63
2023/12/15 01:55:25;;;;;;;96.00;49.47;;;6.70;99.90;;;;;;7375950;19;20620;-68
2023/12/15 01:57:52;;;;;;;88.70;48.20;;;6.70;99.90;;;;;;7376936;19;20026;-63
2023/12/15 02:00:18;;;;;;;92.88;49.78;;;6.70;99.90;;;;;;7376170;19;20026;-64
2023/12/15 02:02:44;;;;;;;97.35;50.33;;;6.70;99.90;;;;;;7372407;19;20129;-65
2023/12/15 02:05:10;;;;;;;95.78;50.75;;;6.70;99.90;;;;;;7374782;19;20019;-63
2023/12/15 02:07:40;;;;;;;95.65;49.00;;;6.80;99.90;;;;;;7375629;19;20022;-63
2023/12/15 02:10:06;;;;;;;98.80;50.83;;;6.70;99.90;;;;;;7379527;19;20019;-68
2023/12/15 02:12:32;;;;;;;98.72;49.53;;;6.70;99.90;;;;;;7374379;19;20074;-67
2023/12/15 02:14:58;;;;;;;99.22;51.45;;;6.70;99.90;;;;;;7379543;19;20086;-68
2023/12/15 02:17:25;;;;;;;110.50;49.88;;;6.80;99.90;;;;;;7376057;19;20024;-68
2023/12/15 02:19:51;;;;;;;94.90;48.08;;;6.80;99.90;;;;;;7376793;19;20538;-63
2023/12/15 02:22:27;;;;;;;99.40;49.33;;;6.80;99.90;;;;;;7371223;19;20022;-68
2023/12/15 02:24:54;;;;;;;99.45;50.72;;;6.80;99.90;;;;;;7369421;19;20116;-64
2023/12/15 02:27:40;;;;;;;102.10;50.42;;;6.80;99.90;;;;;;7368095;19;20029;-63
2023/12/15 02:30:07;;;;;;;95.85;48.47;;;6.90;99.90;;;;;;7375042;19;20018;-63
2023/12/15 02:32:33;;;;;;;94.90;50.22;;;6.90;99.90;;;;;;7370506;19;20566;-63
2023/12/15 02:34:59;;;;;;;103.88;51.67;;;6.90;99.90;;;;;;7376477;19;20022;-68
2023/12/15 02:37:26;;;;;;;97.57;49.15;;;6.80;99.90;;;;;;7373243;19;20026;-64
2023/12/15 02:39:52;;;;;;;93.47;49.75;;;6.90;99.90;;;;;;7373329;19;20014;-68
2023/12/15 02:42:19;;;;;;;96.55;47.92;;;6.90;99.90;;;;;;7371200;19;20035;-63
2023/12/15 02:44:45;;;;;;;92.18;49.75;;;6.90;99.90;;;;;;7374722;19;20022;-63
2023/12/15 02:47:12;;;;;;;94.97;48.33;;;6.90;99.90;;;;;;7375246;19;20015;-68
2023/12/15 02:49:41;;;;;;;105.40;50.83;;;7.00;99.90;;;;;;7372363;19;20018;-68
2023/12/15 02:52:07;;;;;;;93.05;49.45;;;6.90;99.90;;;;;;7373014;19;20019;-63
2023/12/15 02:54:34;;;;;;;92.53;48.55;;;6.90;99.90;;;;;;7370440;19;20018;-63
2023/12/15 02:57:01;;;;;;;92.15;49.63;;;6.90;99.90;;;;;;7374826;19;20070;-63
2023/12/15 02:59:27;;;;;;;99.20;49.47;;;6.90;99.90;;;;;;7374247;19;20675;-63
2023/12/15 03:01:53;;;;;;;93.82;49.45;;;7.00;99.90;;;;;;7375608;19;20022;-63
2023/12/15 03:04:19;;;;;;;91.18;50.65;;;7.00;99.90;;;;;;7375128;19;20105;-67
2023/12/15 03:06:46;;;;;;;94.97;47.58;;;7.00;99.90;;;;;;7367107;19;20043;-68
2023/12/15 03:09:12;;;;;;;93.80;49.45;;;7.00;99.90;;;;;;7372932;19;20050;-68
2023/12/15 03:11:39;;;;;;;100.03;51.03;;;7.00;99.90;;;;;;7377293;19;20666;-64
2023/12/15 03:14:05;;;;;;;100.03;49.88;;;7.00;99.90;;;;;;7367262;19;20327;-68
2023/12/15 03:16:31;;;;;;;92.57;49.38;;;7.00;99.90;;;;;;7372851;19;20026;-63
2023/12/15 03:18:58;;;;;;;93.90;47.28;;;7.00;99.90;;;;;;7373728;19;20050;-68
2023/12/15 03:21:24;;;;;;;107.20;50.97;;;7.00;99.90;;;;;;7374948;19;20402;-68
2023/12/15 03:23:50;;;;;;;94.45;48.17;;;7.10;99.90;;;;;;7375650;19;20608;-67
2023/12/15 03:26:17;;;;;;;92.57;49.53;;;7.10;99.90;;;;;;7373545;19;20018;-63
2023/12/15 03:28:43;;;;;;;103.93;48.58;;;7.10;99.90;;;;;;7372901;19;20026;-67
2023/12/15 03:31:09;;;;;;;99.78;48.95;;;7.10;99.90;;;;;;7371718;19;20015;-67
2023/12/15 03:33:36;;;;;;;102.90;50.65;;;7.10;99.90;;;;;;7374771;19;20014;-68
2023/12/15 03:36:03;;;;;;;98.03;49.70;;;7.10;99.90;;;;;;7372175;19;20022;-68
2023/12/15 03:38:30;;;;;;;104.10;50.20;;;7.10;99.90;;;;;;7372324;19;20283;-68
2023/12/15 03:40:56;;;;;;;99.60;50.42;;;7.10;99.90;;;;;;7371315;19;20018;-67
2023/12/15 03:43:23;;;;;;;113.63;53.22;;;7.10;99.90;;;;;;7368769;19;20037;-63
2023/12/15 03:45:49;;;;;;;101.43;49.92;;;7.10;99.90;;;;;;7371151;19;20022;-63
2023/12/15 03:48:16;;;;;;;107.03;52.10;;;7.10;99.90;;;;;;7366981;19;20034;-64
2023/12/15 03:50:42;;;;;;;106.85;49.08;;;7.10;99.90;;;;;;7372562;19;20043;-68
2023/12/15 03:53:08;;;;;;;104.13;48.60;;;7.10;99.90;;;;;;7372063;19;21043;-67
2023/12/15 03:55:35;;;;;;;107.50;51.22;;;7.10;99.90;;;;;;7369359;19;20030;-68
2023/12/15 03:58:01;;;;;;;103.13;49.55;;;7.10;99.90;;;;;;7374028;19;20513;-68
2023/12/15 04:00:28;;;;;;;114.32;50.10;;;7.10;99.90;;;;;;7369846;19;20032;-68
2023/12/15 04:02:54;;;;;;;113.18;51.80;;;7.10;99.90;;;;;;7371728;19;20862;-67
2023/12/15 04:05:21;;;;;;;112.13;50.30;;;7.10;99.90;;;;;;7367740;19;20026;-68
2023/12/15 04:07:47;;;;;;;115.22;52.35;;;7.10;99.90;;;;;;7367728;19;20094;-68
2023/12/15 04:10:13;;;;;;;113.88;52.00;;;7.10;99.90;;;;;;7371484;19;20050;-68
2023/12/15 04:13:00;;;;;;;115.15;49.65;;;7.10;99.90;;;;;;7369476;19;20018;-68
2023/12/15 04:15:26;;;;;;;113.47;50.97;;;7.10;99.90;;;;;;7368034;19;20019;-68
2023/12/15 04:17:53;;;;;;;107.43;49.45;;;7.10;99.90;;;;;;7366190;19;20049;-63
2023/12/15 04:20:19;;;;;;;116.25;50.88;;;7.10;99.90;;;;;;7365479;19;20450;-63
2023/12/15 04:22:45;;;;;;;130.35;52.35;;;7.10;99.90;;;;;;7367543;19;20059;-63
2023/12/15 04:25:11;;;;;;;130.80;52.35;;;7.10;99.90;;;;;;7365760;19;20038;-68
2023/12/15 04:27:38;;;;;;;134.77;51.17;;;7.10;99.90;;;;;;7362921;19;20105;-68
2023/12/15 04:30:06;;;;;;;143.38;54.00;;;7.10;99.90;;;;;;7368339;19;20029;-63
2023/12/15 04:32:32;;;;;;;142.05;51.90;;;7.10;99.90;;;;;;7367997;19;20044;-63
2023/12/15 04:34:58;;;;;;;146.50;52.58;;;7.10;99.90;;;;;;7367881;19;20035;-63
2023/12/15 04:37:24;;;;;;;156.98;53.03;;;7.10;99.90;;;;;;7368695;19;20018;-67
2023/12/15 04:39:51;;;;;;;162.40;52.67;;;7.10;99.90;;;;;;7371134;19;20021;-68
2023/12/15 04:42:17;;;;;;;135.45;51.28;;;7.10;99.90;;;;;;7368413;19;20014;-63
2023/12/15 04:44:43;;;;;;;143.55;53.17;;;7.10;99.90;;;;;;7369898;19;20019;-63
2023/12/15 04:47:09;;;;;;;134.48;50.78;;;7.10;99.90;;;;;;7366254;19;20026;-63
2023/12/15 04:49:35;;;;;;;138.18;51.80;;;7.10;99.90;;;;;;7368987;19;20725;-68
2023/12/15 04:52:01;;;;;;;147.55;51.22;;;7.10;99.90;;;;;;7368370;19;20018;-63
2023/12/15 04:54:28;;;;;;;160.98;51.45;;;7.10;99.90;;;;;;7368937;19;20018;-63
2023/12/15 04:56:54;;;;;;;155.93;51.88;;;7.10;99.90;;;;;;7365067;19;20018;-64
2023/12/15 04:59:21;;;;;;;162.38;50.92;;;7.10;99.90;;;;;;7365778;19;20589;-63
2023/12/15 05:01:47;;;;;;;162.63;52.15;;;7.10;99.90;;;;;;7366098;19;20026;-63
2023/12/15 05:04:16;;;;;;;169.77;54.15;;;7.10;99.90;;;;;;7371170;19;20015;-63
2023/12/15 05:06:42;;;;;;;159.77;52.63;;;7.00;99.90;;;;;;7364619;19;20014;-65
2023/12/15 05:09:28;;;;;;;160.20;50.75;;;7.10;99.90;;;;;;7367272;19;20545;-63
2023/12/15 05:11:55;;;;;;;155.80;52.22;;;7.00;99.90;;;;;;7366679;19;20035;-68
2023/12/15 05:14:21;;;;;;;153.38;51.00;;;7.10;99.90;;;;;;7367184;19;20018;-63
2023/12/15 05:16:48;;;;;;;159.15;51.80;;;7.10;99.90;;;;;;7367405;19;20377;-67
2023/12/15 05:19:14;;;;;;;138.70;48.78;;;7.00;99.90;;;;;;7367154;19;20158;-68
2023/12/15 05:21:40;;;;;;;152.15;51.65;;;7.10;99.90;;;;;;7368020;19;20019;-68
2023/12/15 05:24:07;;;;;;;151.57;51.78;;;7.00;99.90;;;;;;7365570;19;20754;-69
2023/12/15 05:26:34;;;;;;;156.32;52.33;;;7.00;99.90;;;;;;7367986;19;20029;-68
2023/12/15 05:29:01;;;;;;;163.75;51.92;;;7.00;99.90;;;;;;7364035;19;20532;-68
2023/12/15 05:31:27;;;;;;;150.65;49.90;;;7.00;99.90;;;;;;7364564;19;20022;-63
2023/12/15 05:33:53;;;;;;;138.93;48.60;;;7.10;99.90;;;;;;7364261;19;20022;-62
2023/12/15 05:36:20;;;;;;;159.23;51.78;;;7.10;99.90;;;;;;7368810;19;20691;-67
2023/12/15 05:38:53;;;;;;;167.13;49.80;;;7.10;99.90;;;;;;7369002;19;20366;-68
2023/12/15 05:41:19;;;;;;;138.00;48.20;;;7.10;99.90;;;;;;7367924;19;20026;-68
2023/12/15 05:43:46;;;;;;;140.82;47.72;;;7.10;99.90;;;;;;7366663;19;20562;-63
2023/12/15 05:46:14;;;;;;;136.77;47.80;;;7.10;99.90;;;;;;7369813;19;20034;-63
2023/12/15 05:48:40;;;;;;;156.55;49.20;;;7.10;99.90;;;;;;7365416;19;20026;-68
2023/12/15 05:51:09;;;;;;;155.30;49.35;;;7.10;99.90;;;;;;7370221;19;20034;-63
2023/12/15 05:53:35;;;;;;;177.25;52.35;;;7.00;99.90;;;;;;7368306;19;20018;-63
2023/12/15 05:56:02;;;;;;;164.13;51.00;;;7.10;99.90;;;;;;7369105;19;20115;-63
2023/12/15 05:58:28;;;;;;;184.80;51.80;;;7.00;99.90;;;;;;7365968;19;20567;-68
2023/12/15 06:00:55;;;;;;;210.98;56.85;;;7.10;99.90;;;;;;7371118;19;20031;-67
2023/12/15 06:03:21;;;;;;;195.02;52.08;;;7.00;99.90;;;;;;7365980;19;20781;-63
2023/12/15 06:05:48;;;;;;;222.45;58.08;;;7.00;99.90;;;;;;7369292;19;20039;-61
2023/12/15 06:08:14;;;;;;;201.98;54.88;;;7.00;99.90;;;;;;7367781;19;20047;-63
2023/12/15 06:10:41;;;;;;;219.45;56.20;;;7.00;99.90;;;;;;7370223;19;20589;-67
2023/12/15 06:13:09;;;;;;;196.27;55.97;;;7.00;99.90;;;;;;7374950;19;20100;-68
2023/12/15 06:15:36;;;;;;;167.88;50.75;;;7.00;99.90;;;;;;7373130;19;20034;-68
2023/12/15 06:18:04;;;;;;;176.63;50.55;;;7.00;99.90;;;;;;7373583;19;20022;-68
2023/12/15 06:20:30;;;;;;;162.15;51.00;;;7.00;99.90;;;;;;7372924;19;20503;-69
2023/12/15 06:22:57;;;;;;;168.27;50.33;;;7.00;99.90;;;;;;7376209;19;20029;-68
2023/12/15 06:25:26;;;;;;;150.98;49.47;;;6.90;99.90;;;;;;7369472;19;20014;-69
2023/12/15 06:27:52;;;;;;;141.93;45.40;;;6.90;99.90;;;;;;7372359;19;20834;-63
2023/12/15 06:30:19;;;;;;;130.68;45.88;;;6.80;99.90;;;;;;7371051;19;20530;-63
2023/12/15 06:32:46;;;;;;;137.18;46.30;;;6.80;99.90;;;;;;7374379;19;20019;-64
2023/12/15 06:35:14;;;;;;;131.75;46.55;;;6.80;99.90;;;;;;7373522;19;20022;-67
2023/12/15 06:37:42;;;;;;;123.32;45.80;;;6.90;99.90;;;;;;7374554;19;20046;-63
2023/12/15 06:40:08;;;;;;;131.20;47.17;;;6.80;99.90;;;;;;7374103;19;20086;-63
2023/12/15 06:42:34;;;;;;;140.07;47.53;;;6.80;99.90;;;;;;7373850;19;20036;-63
2023/12/15 06:45:07;;;;;;;135.20;47.65;;;6.90;99.90;;;;;;7372111;19;20831;-65
2023/12/15 06:47:36;;;;;;;135.57;47.25;;;6.90;99.90;;;;;;7375814;19;20014;-63
2023/12/15 06:50:03;;;;;;;141.38;49.40;;;6.90;99.90;;;;;;7371319;19;20032;-63
2023/12/15 06:52:29;;;;;;;139.55;48.40;;;6.90;99.90;;;;;;7374775;19;20018;-65
2023/12/15 06:54:55;;;;;;;136.35;46.10;;;6.90;99.90;;;;;;7370791;19;20940;-64
2023/12/15 06:57:22;;;;;;;143.98;51.50;;;6.90;99.90;;;;;;7375116;19;20098;-62
2023/12/15 06:59:48;;;;;;;146.13;45.90;;;7.00;99.90;;;;;;7369062;19;21151;-63
2023/12/15 07:02:14;;;;;;;182.57;48.90;;;7.00;99.90;;;;;;7374456;19;20039;-63
2023/12/15 07:04:40;;;;;;;199.48;51.90;;;7.00;99.90;;;;;;7371256;19;20078;-63
2023/12/15 07:07:10;;;;;;;232.60;52.78;;;7.00;99.90;;;;;;7373484;19;20035;-63
2023/12/15 07:09:37;;;;;;;218.82;52.95;;;6.90;99.90;;;;;;7370475;19;20049;-64
2023/12/15 07:12:03;;;;;;;254.70;80.80;;;6.90;99.90;;;;;;7374487;19;20015;-62
2023/12/15 07:14:30;;;;;;;232.73;51.38;;;6.90;99.90;;;;;;7371894;19;20017;-65
2023/12/15 07:16:56;;;;;;;219.98;51.70;;;6.90;99.90;;;;;;7370395;19;20018;-63
2023/12/15 07:19:22;;;;;;;277.15;53.55;;;7.00;99.90;;;;;;7369232;19;20055;-61
2023/12/15 07:21:48;;;;;;;277.23;54.40;;;6.90;99.90;;;;;;7371830;19;20014;-68
2023/12/15 07:24:15;;;;;;;233.63;50.95;;;7.00;99.90;;;;;;7369810;19;20047;-68
2023/12/15 07:26:44;;;;;;;225.38;51.38;;;6.90;99.90;;;;;;7369470;19;20664;-67
2023/12/15 07:29:10;;;;;;;258.25;52.53;;;6.90;99.90;;;;;;7370762;19;20018;-68
2023/12/15 07:31:57;;;;;;;232.23;51.33;;;6.90;99.90;;;;;;7369243;19;20018;-68
2023/12/15 07:34:23;;;;;;;264.35;55.92;;;6.90;99.90;;;;;;7370900;19;20026;-68
2023/12/15 07:36:52;;;;;;;195.05;48.60;;;6.90;99.90;;;;;;7370508;19;20474;-63
2023/12/15 07:39:21;;;;;;;196.25;48.35;;;7.00;99.90;;;;;;7371740;19;20022;-63
2023/12/15 07:41:51;;;;;;;158.88;45.92;;;6.90;99.90;;;;;;7365881;19;20402;-62
2023/12/15 07:44:17;;;;;;;160.27;44.22;;;7.00;99.90;;;;;;7370588;19;20033;-68
2023/12/15 07:46:44;;;;;;;164.95;47.17;;;6.90;99.90;;;;;;7366836;19;20021;-63
2023/12/15 07:49:10;;;;;;;171.70;47.60;;;7.00;99.90;;;;;;7371545;19;20085;-62
2023/12/15 07:51:40;;;;;;;144.85;44.67;;;7.00;99.90;;;;;;7370702;19;20018;-63
2023/12/15 07:54:08;;;;;;;147.45;44.58;;;7.00;99.90;;;;;;7370573;19;20593;-63
2023/12/15 07:56:35;;;;;;;137.68;42.63;;;7.00;99.90;;;;;;7367587;19;20111;-63
2023/12/15 07:59:01;;;;;;;143.98;43.70;;;6.90;99.90;;;;;;7371658;19;20034;-63
2023/12/15 08:01:27;;;;;;;129.27;42.40;;;7.00;99.90;;;;;;7368628;19;20454;-63
2023/12/15 08:03:54;;;;;;;138.27;42.67;;;6.90;99.90;;;;;;7371218;19;20022;-68
2023/12/15 08:06:20;;;;;;;126.75;41.83;;;7.00;99.90;;;;;;7370051;19;20030;-68
2023/12/15 08:08:47;;;;;;;116.60;39.83;;;7.00;99.90;;;;;;7369409;19;20014;-68
2023/12/15 08:11:14;;;;;;;122.35;46.85;;;7.00;99.90;;;;;;7368778;19;20018;-69
2023/12/15 08:13:41;;;;;;;119.95;41.92;;;7.00;99.90;;;;;;7368653;19;20093;-62
2023/12/15 08:16:08;;;;;;;112.43;39.08;;;7.00;99.90;;;;;;7370435;19;20014;-64
2023/12/15 08:18:34;;;;;;;111.05;39.15;;;7.00;99.90;;;;;;7372531;19;20493;-63
2023/12/15 08:21:21;;;;;;;107.82;39.58;;;7.00;99.90;;;;;;7371491;19;20753;-64
2023/12/15 08:23:48;;;;;;;109.05;38.10;;;7.00;99.90;;;;;;7370613;19;20565;-65
2023/12/15 08:26:23;;;;;;;141.35;71.88;;;7.00;99.90;;;;;;7372572;19;20022;-64
2023/12/15 08:28:49;;;;;;;158.15;85.50;;;7.10;99.90;;;;;;7366756;19;20014;-63
2023/12/15 08:31:16;;;;;;;116.22;41.80;;;7.10;99.90;;;;;;7370220;19;20021;-63
2023/12/15 08:33:43;;;;;;;116.28;57.17;;;7.20;99.90;;;;;;7370599;19;20075;-63
2023/12/15 08:36:12;;;;;;;93.63;36.60;;;7.20;99.90;;;;;;7372240;19;20052;-63
2023/12/15 08:38:38;;;;;;;96.88;37.53;;;7.20;99.90;;;;;;7370709;19;20029;-63
2023/12/15 08:41:08;;;;;;;98.07;35.40;;;7.30;99.90;;;;;;7369650;19;20047;-64
2023/12/15 08:43:34;;;;;;;75.47;34.03;;;7.30;99.90;;;;;;7365761;19;20029;-64
2023/12/15 08:46:01;;;;;;;85.03;33.30;;;7.30;99.90;;;;;;7372348;19;20824;-68
2023/12/15 08:48:49;;;;;;;81.43;31.90;;;7.30;99.90;;;;;;7369488;19;20112;-63
2023/12/15 08:51:28;;;;;;;86.90;33.65;;;7.30;99.90;;;;;;7370651;19;20022;-64
2023/12/15 08:53:54;;;;;;;100.15;33.05;;;7.20;99.90;;;;;;7374008;19;20088;-64
2023/12/15 08:56:20;;;;;;;85.47;32.65;;;7.30;99.90;;;;;;7368031;19;20043;-65
2023/12/15 08:58:47;;;;;;;77.88;31.58;;;7.40;99.90;;;;;;7371683;19;20022;-64
2023/12/15 09:01:13;;;;;;;71.75;29.67;;;7.30;99.90;;;;;;7370888;19;20513;-64
2023/12/15 09:03:39;;;;;;;87.05;32.53;;;7.40;99.90;;;;;;7368806;19;20022;-63
2023/12/15 09:06:10;;;;;;;85.90;30.75;;;7.50;99.90;;;;;;7367527;19;20014;-67
2023/12/15 09:08:40;;;;;;;69.60;29.48;;;7.50;99.90;;;;;;7366968;19;20010;-66
2023/12/15 09:11:27;;;;;;;64.80;29.60;;;7.50;99.90;;;;;;7366808;19;20017;-68
2023/12/15 09:13:53;;;;;;;69.80;28.70;;;7.50;99.90;;;;;;7368436;19;20029;-69
2023/12/15 09:16:19;;;;;;;67.32;27.63;;;7.50;99.90;;;;;;7367418;19;20022;-68
2023/12/15 09:18:46;;;;;;;66.45;27.35;;;7.50;99.90;;;;;;7368900;19;20010;-69
2023/12/15 09:21:12;;;;;;;65.30;26.60;;;7.60;99.90;;;;;;7368725;19;20018;-69
2023/12/15 09:23:38;;;;;;;64.68;26.35;;;7.60;99.90;;;;;;7370305;19;20417;-69
2023/12/15 09:26:05;;;;;;;55.88;25.17;;;7.60;99.90;;;;;;7369687;19;20010;-70
2023/12/15 09:28:31;;;;;;;58.80;24.83;;;7.70;99.90;;;;;;7364570;19;20621;-69
2023/12/15 09:30:57;;;;;;;61.08;23.05;;;7.80;99.90;;;;;;7369751;19;20061;-69
2023/12/15 09:33:23;;;;;;;58.92;21.77;;;7.80;99.90;;;;;;7370602;19;20022;-69
2023/12/15 09:35:54;;;;;;;41.90;21.20;;;7.90;99.90;;;;;;7370288;19;20018;-69
2023/12/15 09:38:20;;;;;;;48.60;19.88;;;7.90;99.90;;;;;;7367281;19;20521;-69
2023/12/15 09:40:47;;;;;;;46.00;19.20;;;8.00;99.90;;;;;;7369475;19;20026;-70
2023/12/15 09:43:14;;;;;;;47.80;20.85;;;8.10;99.90;;;;;;7369332;19;20018;-70
2023/12/15 09:45:40;;;;;;;44.60;19.33;;;8.10;99.90;;;;;;7368907;19;20014;-69
2023/12/15 09:48:07;;;;;;;44.13;18.40;;;8.10;99.90;;;;;;7377580;19;20029;-69
2023/12/15 09:50:34;;;;;;;52.65;29.10;;;8.20;99.90;;;;;;7374330;19;20014;-68
2023/12/15 09:53:03;;;;;;;52.60;19.48;;;8.30;99.90;;;;;;7376797;19;20018;-69
2023/12/15 09:55:33;;;;;;;39.67;17.10;;;8.40;99.90;;;;;;7373845;19;20048;-67
2023/12/15 09:58:00;;;;;;;43.55;17.73;;;8.40;99.90;;;;;;7374575;19;20078;-69
2023/12/15 10:00:26;;;;;;;42.10;16.95;;;8.40;99.90;;;;;;7372225;19;20015;-71
2023/12/15 10:02:57;;;;;;;40.15;17.88;;;8.50;99.90;;;;;;7375626;19;20534;-69
2023/12/15 10:05:24;;;;;;;43.28;17.27;;;8.50;99.90;;;;;;7373944;19;20035;-69
2023/12/15 10:07:50;;;;;;;40.55;17.80;;;8.50;99.90;;;;;;7371950;19;20022;-68
2023/12/15 10:10:18;;;;;;;33.15;17.75;;;8.60;99.90;;;;;;7377439;19;20094;-68
2023/12/15 10:12:45;;;;;;;47.30;19.00;;;8.50;99.90;;;;;;7381816;19;20485;-68
2023/12/15 10:15:14;;;;;;;31.92;17.27;;;8.50;99.90;;;;;;7376118;19;20022;-68
2023/12/15 10:17:40;;;;;;;46.13;15.60;;;8.50;99.90;;;;;;7375006;19;20015;-68
2023/12/15 10:20:09;;;;;;;38.55;15.38;;;8.50;99.90;;;;;;7374327;19;20033;-68
2023/12/15 10:22:38;;;;;;;39.17;14.68;;;8.50;99.90;;;;;;7374007;19;20014;-67
2023/12/15 10:25:20;;;;;;;33.80;14.48;;;8.60;99.90;;;;;;7376539;19;20822;-68
2023/12/15 10:27:50;;;;;;;107.13;81.47;;;8.70;99.90;;;;;;7374267;19;20042;-69
2023/12/15 10:30:17;;;;;;;45.13;14.60;;;8.70;99.90;;;;;;7374347;19;20898;-67
2023/12/15 10:32:44;;;;;;;31.45;13.13;;;8.80;99.90;;;;;;7373203;19;20022;-67
2023/12/15 10:35:11;;;;;;;34.08;13.77;;;8.80;99.90;;;;;;7374381;19;20026;-68
2023/12/15 10:37:42;;;;;;;35.15;12.45;;;8.90;99.90;;;;;;7374120;19;20795;-68
2023/12/15 10:40:09;;;;;;;30.50;12.60;;;8.90;99.90;;;;;;7371595;19;20015;-68
2023/12/15 10:42:35;;;;;;;28.95;12.00;;;8.90;99.90;;;;;;7370381;19;20022;-68
2023/12/15 10:45:06;;;;;;;34.10;12.32;;;8.90;99.90;;;;;;7371686;19;20006;-68
2023/12/15 10:47:33;;;;;;;40.13;12.00;;;8.90;99.90;;;;;;7372094;19;20584;-67
2023/12/15 10:50:01;;;;;;;26.23;10.05;;;8.90;99.90;;;;;;7373147;19;20494;-68
2023/12/15 10:52:28;;;;;;;36.03;11.45;;;8.90;99.90;;;;;;7374997;19;20040;-68
2023/12/15 10:54:59;;;;;;;32.03;10.35;;;8.90;99.90;;;;;;7375800;19;20035;-68
2023/12/15 10:57:25;;;;;;;32.90;10.52;;;9.00;99.90;;;;;;7369825;19;20145;-68
2023/12/15 11:00:13;;;;;;;29.88;9.77;;;9.00;99.90;;;;;;7376159;19;20736;-68
2023/12/15 11:03:00;;;;;;;34.42;9.80;;;9.00;99.90;;;;;;7372643;19;20018;-69
2023/12/15 11:05:27;;;;;;;30.67;8.80;;;9.10;99.90;;;;;;7378046;19;20019;-70
2023/12/15 11:07:53;;;;;;;32.20;9.27;;;9.10;99.90;;;;;;7374819;19;20035;-70
2023/12/15 11:10:20;;;;;;;30.08;9.05;;;9.20;99.90;;;;;;7381808;19;20018;-69
2023/12/15 11:12:47;;;;;;;39.40;9.93;;;9.30;99.90;;;;;;7375162;19;20035;-70
2023/12/15 11:15:18;;;;;;;39.38;9.77;;;9.20;99.90;;;;;;7379441;19;20070;-69
2023/12/15 11:17:49;;;;;;;35.67;10.15;;;9.20;99.90;;;;;;7374220;19;20014;-69
2023/12/15 11:20:22;;;;;;;33.77;9.60;;;9.20;99.90;;;;;;7378103;19;20022;-69
2023/12/15 11:22:59;;;;;;;32.80;8.73;;;9.30;99.90;;;;;;7374297;19;20315;-70
2023/12/15 11:25:32;;;;;;;34.47;9.35;;;9.30;99.90;;;;;;7377247;19;20489;-70
2023/12/15 11:28:11;;;;;;;42.03;9.63;;;9.40;99.90;;;;;;7370820;19;20014;-70
2023/12/15 11:30:40;;;;;;;33.78;8.18;;;9.40;99.90;;;;;;7372615;19;20011;-69
2023/12/15 11:33:30;;;;;;;33.85;8.43;;;9.50;99.90;;;;;;7377699;19;20027;-70
2023/12/15 11:36:05;;;;;;;31.23;8.02;;;9.50;99.90;;;;;;7375860;19;20786;-70
2023/12/15 11:38:33;;;;;;;34.22;9.73;;;9.60;99.90;;;;;;7371087;19;20367;-70
2023/12/15 11:41:01;;;;;;;31.35;9.35;;;9.60;99.90;;;;;;7372256;19;20021;-69
2023/12/15 11:43:33;;;;;;;33.50;8.77;;;9.70;99.90;;;;;;7376082;19;20508;-69
2023/12/15 11:46:25;;;;;;;29.70;8.00;;;9.70;99.90;;;;;;7375563;19;20022;-69
2023/12/15 11:48:51;;;;;;;34.92;9.07;;;9.80;99.90;;;;;;7374473;19;20447;-69
2023/12/15 11:51:18;;;;;;;34.83;8.13;;;9.80;99.90;;;;;;7371918;19;20895;-63
2023/12/15 11:53:47;;;;;;;32.50;7.82;;;9.80;99.90;;;;;;7373908;19;20466;-63
2023/12/15 11:56:14;;;;;;;34.03;8.38;;;9.80;99.90;;;;;;7375496;19;20017;-70
2023/12/15 11:58:44;;;;;;;30.73;7.63;;;9.70;99.90;;;;;;7374649;19;20027;-63
2023/12/15 12:01:10;;;;;;;31.25;8.13;;;9.60;99.90;;;;;;7369344;19;20025;-63
2023/12/15 12:03:37;;;;;;;31.27;9.13;;;9.60;99.90;;;;;;7372386;19;20021;-63
2023/12/15 12:06:05;;;;;;;26.63;6.80;;;9.60;99.90;;;;;;7372971;19;20050;-64
2023/12/15 12:08:33;;;;;;;32.13;8.88;;;9.60;99.90;;;;;;7366315;19;20382;-63
2023/12/15 12:11:00;;;;;;;25.40;8.25;;;9.70;99.90;;;;;;7370712;19;20019;-63
2023/12/15 12:13:34;;;;;;;31.00;7.35;;;9.70;99.90;;;;;;7371798;19;20014;-64
2023/12/15 12:16:01;;;;;;;32.72;7.38;;;9.80;99.90;;;;;;7369489;19;20018;-63
2023/12/15 12:18:29;;;;;;;36.75;7.75;;;9.90;99.90;;;;;;7373138;19;20018;-63
2023/12/15 12:20:57;;;;;;;33.05;7.93;;;10.00;99.90;;;;;;7367486;19;20014;-63
2023/12/15 12:23:27;;;;;;;26.52;6.60;;;10.00;99.90;;;;;;7372017;19;20051;-63
2023/12/15 12:25:57;;;;;;;34.22;8.07;;;10.20;99.90;;;;;;7368309;19;20082;-63
2023/12/15 12:28:41;;;;;;;30.42;7.28;;;10.40;99.90;;;;;;7367514;19;20039;-63
2023/12/15 12:31:08;;;;;;;29.55;7.22;;;10.30;99.90;;;;;;7368853;19;20018;-62
2023/12/15 12:33:34;;;;;;;27.10;7.38;;;10.30;99.90;;;;;;7370330;19;20015;-64
2023/12/15 12:36:00;;;;;;;31.27;6.75;;;10.30;99.90;;;;;;7365450;19;20015;-62
2023/12/15 12:38:27;;;;;;;32.13;7.43;;;10.30;99.90;;;;;;7365687;19;20022;-62